Tiempo atmosférico en la estación meteorológica de Teruel, Teruel (900 m.)



Fecha
DESCASC
Temp. máxima en grados centígrados (hora)
DESCASC
Temp. mínima en grados centígrados (hora)
DESCASC
Temp. media en grados centígrados
DESCASC
Racha de viento máxima en m/sg (hora)
DESCASC
Velocidad máxima media en intervalos de 10 minutos(hora)
DESCASC
Precipitaciones diarias en mm
DESCASC
Precipitaciones de 00:00 a 06:00 en mm
DESCASC
Precipitaciones de 06:00 a 12:00 en mm
DESCASC
Precipitaciones de 12:00 a 18:00 en mm
DESCASC
Precipitaciones de 18:00 a 24:00 en mm
DESCASC
17-10-2019 21.1 (17:20) 0.9 (07:50) 11 5.28 (17:20) 2.78 (17:30) 0 0 0 0 0
16-10-2019 21.7 (16:30) 1.9 (08:40) 11.8 6.94 (19:50) 3.33 (20:00) 0 0 0 0 0
15-10-2019 17.2 (17:10) 5.1 (08:30) 11.2 8.89 (15:10) 3.61 (05:40) 0 0 0 0 0
14-10-2019 20.2 (16:50) 12.1 (05:40) 16.2 11.11 (13:10) 4.72 (13:10) 2.2 0 0.8 1.4 0
13-10-2019 27 (15:50) 13.6 (00:00) 20.3 10 (15:50) 5 (15:50) 0 0 0 0 0
12-10-2019 25.5 (15:30) 14.2 (00:00) 19.8 6.67 (14:40) 3.33 (17:50) 0 0 0 0 0
10-10-2019 24.6 (16:00) 13.4 (00:00) 19 8.61 (17:20) 4.72 (17:20) 0 0 0 0 0
09-10-2019 28 (16:20) 9.5 (00:00) 18.8 9.17 (18:10) 3.89 (23:40) 0 0 0 0 0
08-10-2019 29.1 (17:00) 8.5 (00:00) 18.8 5.28 (18:30) 2.78 (19:00) 0 0 0 0 0
07-10-2019 26.1 (16:50) 7.7 (00:00) 16.9 10 (17:30) 5 (17:30) 0 0 0 0 0
06-10-2019 25.9 (17:30) 6.7 (00:00) 16.3 6.11 (18:10) 2.78 (18:40) 0 0 0 0 0
05-10-2019 27.6 (17:00) 7 (08:40) 17.3 4.17 (15:20) 1.94 (14:50) 0 0 0 0 0
04-10-2019 29 (17:00) 5.6 (00:00) 17.3 6.67 (17:30) 3.33 (17:30) 0 0 0 0 0
03-10-2019 26.1 (16:50) 6.2 (00:00) 16.2 6.67 (14:00) 2.78 (13:50) 0 0 0 0 0
02-10-2019 21.1 (16:50) 10.1 (00:00) 15.6 9.17 (14:50) 4.72 (16:30) 0 0 0 0 0
01-10-2019 29.2 (15:50) 8.3 (00:00) 18.8 7.22 (16:50) 3.33 (16:00) 0 0 0 0 0
30-09-2019 30.6 (16:00) 7.8 (00:00) 19.2 7.22 (18:10) 4.17 (18:00) 0 0 0 0 0
29-09-2019 30.9 (16:50) 14.6 (00:00) 22.8 5 (14:50) 2.5 (19:50) 0 0 0 0 0
28-09-2019 29.1 (16:20) 8.2 (00:00) 18.7 10.56 (17:50) 4.44 (17:50) 0 0 0 0 0
27-09-2019 29.2 (16:20) 10 (00:00) 19.6 6.11 (17:40) 2.78 (17:10) 0 0 0 0 0
26-09-2019 28.8 (17:00) 8.9 (00:00) 18.8 6.39 (18:00) 3.61 (18:50) 0 0 0 0 0
25-09-2019 24.4 (17:50) 12.1 (00:00) 18.3 6.11 (11:50) 3.06 (11:20) 0 0 0 0 0
24-09-2019 29.5 (16:00) 8.5 (00:00) 19 6.67 (17:50) 3.61 (19:00) 0 0 0 0 0
23-09-2019 24.8 (17:20) 8.1 (00:00) 16.4 4.72 (15:30) 2.22 (19:10) 0 0 0 0 0
22-09-2019 24.9 (15:20) 13.9 (00:00) 19.4 8.89 (16:30) 4.72 (14:30) 1.6 0 0 1.6 0
21-09-2019 24.7 (17:20) 13.9 (00:00) 19.3 8.89 (01:00) 4.72 (17:30) 25.2 18 7.2 0 0
20-09-2019 23.6 (16:00) 12.7 (00:00) 18.2 8.89 (17:10) 3.61 (11:20) 0.2 0 0 0 0.2
19-09-2019 29.2 (15:20) 10.8 (00:00) 20 10 (15:30) 3.89 (17:10) 0 0 0 0 0

Gráficas

Temp. máximas Temp. mínimas Temp. medias Precipitaciones Rachas de viento máximas Velocidades máximas media en intervalos de 10 minutos

Datos horarios

Fecha y hora oficial Temperatura (ºC) Velocidad del viento (km/h) Dirección del viento Racha (km/h) Dirección de racha Precipitación (mm) Presión (hPa) Tendencia (hPa) Humedad (%)
2019-10-18 23:00:00 14.4 5 Sur 11 Sur 0 912.4 0.2 77
2019-10-18 22:00:00 15.7 5 Sur 13 Sur 0 912.3 0.2 71
2019-10-18 21:00:00 16.6 7 Sur 13 Sudoeste 0 912.3 -0.2 64
2019-10-18 20:00:00 17.7 3 Sur 13 Sudoeste 0 912.2 -0.7 59
2019-10-18 19:00:00 19.3 8 Sur 19 Sudoeste 0 912.1 -0.9 52
2019-10-18 18:00:00 19.9 11 Sudoeste 23 Sur 0 912.5 -0.9 53
2019-10-18 17:00:00 21 10 Sur 20 Sur 0 912.9 -1.3 50
2019-10-18 16:00:00 21.6 7 Sudoeste 21 Sudoeste 0 913 -1.6 45
2019-10-18 15:00:00 20.6 11 Sudoeste 26 Oeste 0 913.4 -1.3 47
2019-10-18 14:00:00 20.6 12 Sudoeste 28 Sur 0 914.2 -0.8 51
2019-10-18 13:00:00 19.6 9 Sur 23 Sudoeste 0 914.6 -0.5 59
2019-10-18 12:00:00 19.1 11 Sur 23 Sur 0 914.7 0.1 63
2019-10-18 11:00:00 17 10 Sur 18 Sur 0 915 0.5 72
2019-10-18 10:00:00 13 2 Norte 10 Norte 0 915.1 0.8 87
2019-10-18 09:00:00 10.3 4 Nordeste 11 Nordeste 0 914.6 -0.3 90
2019-10-18 08:00:00 9.4 3 Nordeste 10 Norte 0 914.5 -0.2 90
2019-10-18 07:00:00 9.1 3 Sur 8 Oeste 0 914.3 -1.1 90
2019-10-18 06:00:00 8.4 3 Noroeste 10 Norte 0 914.9 -0.9 91
2019-10-18 05:00:00 8 4 Nordeste 6 Norte 0 914.7 -1.7 90
2019-10-18 04:00:00 8.6 4 Norte 7 Nordeste 0 915.4 -1.1 89
2019-10-18 03:00:00 9 2 Nordeste 8 Oeste 0 915.8 -0.9 88
2019-10-18 02:00:00 9.7 2 Oeste 6 Norte 0 916.4 -0.4 85
2019-10-18 01:00:00 10.1 4 Sudeste 6 Este 0 916.5 0.4 85
2019-10-18 00:00:00 10 3 Este 8 Este 0 916.7 1.1 84
2019-10-17 23:00:00 11.1 4 Este 7 Sudeste 0 916.8 1.7 80
2019-10-17 22:00:00 12.6 3 Este 8 Nordeste 0 916.1 1.5 74
2019-10-17 21:00:00 14.1 4 Norte 9 Nordeste 0 915.6 1.1 68
2019-10-17 20:00:00 16.6 3 Noroeste 11 Noroeste 0 915.1 0.8 59
2019-10-17 19:00:00 19.6 4 Oeste 16 Oeste 0 914.6 0.1 49
2019-10-17 18:00:00 20.3 7 Noroeste 19 Noroeste 0 914.5 -0.3 45
2019-10-17 17:00:00 20.4 5 Nordeste 12 Noroeste 0 914.3 -1 44
2019-10-17 16:00:00 20.1 4 Norte 14 Nordeste 0 914.5 -1.3 38
2019-10-17 15:00:00 20.4 4 Nordeste 7 Nordeste 0 914.8 -1.1 28
2019-10-17 14:00:00 18.8 3 Este 7 Este 0 915.3 -0.7 27
2019-10-17 13:00:00 18.7 5 Sur 9 Sudeste 0 915.8 -0.3 26
2019-10-17 12:00:00 15.3 4 Este 8 Este 0 915.9 0.1 37
2019-10-17 11:00:00 10.1 4 Este 8 Oeste 0 916 1.1 56
2019-10-17 10:00:00 4.3 2 Sur 5 Sur 0 916.1 1 81
2019-10-17 09:00:00 1.3 3 Oeste 7 Oeste 0 915.8 1 90
2019-10-17 08:00:00 1.1 4 Oeste 9 Oeste 0 914.9 -0.3 90
2019-10-17 07:00:00 1.7 0 Calma 5 Oeste 0 915.1 -0.3 87
2019-10-17 06:00:00 2.1 2 Noroeste 6 Oeste 0 914.8 -1.1 87
2019-10-17 05:00:00 3.1 3 Noroeste 7 Noroeste 0 915.2 -0.7 84
2019-10-17 04:00:00 3.6 0 Calma 9 Oeste 0 915.4 -0.6 85
2019-10-17 03:00:00 4.7 4 Oeste 8 Oeste 0 915.9 -0.3 80
2019-10-17 02:00:00 5.4 0 Calma 5 Oeste 0 915.9 0.1 80
2019-10-17 01:00:00 7.1 0 Calma 5 Sudoeste 0 916 0.5 76
2019-10-17 00:00:00 9 2 Oeste 7 Norte 0 916.2 1.1 69
2019-10-16 23:00:00 11 2 Este 5 Este 0 915.8 1.9 58
2019-10-16 22:00:00 12.6 3 Norte 11 Noroeste 0 915.5 2 55
2019-10-16 21:00:00 15.1 5 Sur 18 Sur 0 915.1 1.5 45
2019-10-16 20:00:00 17.6 12 Sur 25 Sur 0 913.9 -0.1 37
2019-10-16 19:00:00 19.7 7 Sur 15 Sudoeste 0 913.5 -1.2 32
2019-10-16 18:00:00 21.4 3 Este 13 Nordeste 0 913.6 -1.6 30
2019-10-16 17:00:00 21.5 4 Nordeste 10 Nordeste 0 914 -1.9 31
2019-10-16 16:00:00 21.3 3 Sudeste 12 Nordeste 0 914.7 -2 29
2019-10-16 15:00:00 19.6 4 Nordeste 12 Sudeste 0 915.2 -2.2 29
2019-10-16 14:00:00 18.3 5 Noroeste 12 Sur 0 915.9 -1.9 33
2019-10-16 13:00:00 16.6 4 Sudeste 11 Este 0 916.7 -1 33
2019-10-16 12:00:00 14.2 3 Sur 7 Sudeste 0 917.4 0 47
2019-10-16 11:00:00 10 3 Sudeste 6 Este 0 917.8 0.5 59
2019-10-16 10:00:00 4.9 2 Oeste 4 Norte 0 917.7 0.6 83
2019-10-16 09:00:00 2.2 3 Nordeste 4 Nordeste 0 917.4 0.3 91
2019-10-16 08:00:00 2.3 3 Oeste 5 Sudoeste 0 917.3 0 90
2019-10-16 07:00:00 3 2 Noroeste 4 Oeste 0 917.1 -0.5 87
2019-10-16 06:00:00 3.3 4 Oeste 6 Sudoeste 0 917.1 -0.8 87
2019-10-16 05:00:00 3.9 3 Oeste 6 Oeste 0 917.3 -0.8 85
2019-10-16 04:00:00 3.3 2 Noroeste 5 Norte 0 917.6 -0.7 86
2019-10-16 03:00:00 3.4 0 Calma 3 Nordeste 0 917.9 -0.4 84
2019-10-16 02:00:00 4.1 0 Calma 5 Nordeste 0 918.1 0 82
2019-10-16 01:00:00 5.2 2 Oeste 5 Sudoeste 0 918.3 0.9 76
2019-10-16 00:00:00 6.1 2 Oeste 3 Oeste 0 918.3 1.5 74
2019-10-15 23:00:00 6.9 2 Sudeste 8 Nordeste 0 918.1 1.8 71
2019-10-15 22:00:00 8.5 3 Noroeste 7 Oeste 0 917.4 1.7 64
2019-10-15 21:00:00 9.9 2 Norte 8 Noroeste 0 916.8 1.6 57
2019-10-15 20:00:00 12.5 3 Noroeste 9 Nordeste 0 916.3 1 43
2019-10-15 19:00:00 15.3 5 Nordeste 14 Nordeste 0 915.7 0.2 34
2019-10-15 18:00:00 16.5 6 Nordeste 17 Norte 0 915.2 -0.6 31
2019-10-15 17:00:00 17.1 9 Norte 30 Nordeste 0 915.3 -1.1 30
2019-10-15 16:00:00 16.7 8 Norte 32 Nordeste 0 915.5 -1.5 32
2019-10-15 15:00:00 15.7 10 Norte 32 Noroeste 0 915.8 -1.3 38
2019-10-15 14:00:00 14.9 11 Norte 26 Noroeste 0 916.4 -0.7 41
2019-10-15 13:00:00 13.4 10 Norte 24 Nordeste 0 917 0.8 46
2019-10-15 12:00:00 11.9 10 Norte 26 Noroeste 0 917.1 1.8 51
2019-10-15 11:00:00 10.3 7 Norte 23 Norte 0 917.1 2.3 57
2019-10-15 10:00:00 8.3 10 Noroeste 21 Norte 0 916.2 2.1 67
2019-10-15 09:00:00 6.1 5 Noroeste 14 Noroeste 0 915.3 1.3 74
2019-10-15 08:00:00 6.1 3 Norte 18 Norte 0 914.8 1.1 71
2019-10-15 07:00:00 6.9 11 Noroeste 20 Noroeste 0 914.1 1.2 68
2019-10-15 06:00:00 7.7 7 Noroeste 25 Oeste 0 914 0.7 65
2019-10-15 05:00:00 7.7 8 Nordeste 19 Nordeste 0 913.7 0.9 69
2019-10-15 04:00:00 7 4 Nordeste 11 Noroeste 0 912.9 -0.2 80
2019-10-15 03:00:00 8 5 Noroeste 11 Norte 0 913.3 0.3 77
2019-10-15 02:00:00 9.4 5 Oeste 12 Sudoeste 0 912.8 -0.1 71
2019-10-15 01:00:00 10.8 7 Oeste 19 Sudoeste 0 913.1 1.8 64
2019-10-15 00:00:00 12.4 12 Oeste 21 Oeste 0 913 2.3 58
2019-10-14 23:00:00 13.3 10 Oeste 30 Oeste 0 912.9 2.8 61
2019-10-14 22:00:00 15.3 12 Oeste 25 Oeste 0 911.3 1.6 48
2019-10-14 21:00:00 16 8 Sudoeste 37 Sur 0 910.7 1.3 55
2019-10-14 20:00:00 17 13 Sudoeste 28 Oeste 0 910.1 0.8 55
2019-10-14 19:00:00 18.7 16 Sudoeste 30 Sur 0 909.7 -0.1 54
2019-10-14 18:00:00 19.1 15 Sur 36 Sur 0 909.4 -0.9 62
2019-10-14 17:00:00 19.5 16 Sur 29 Sur 0 909.3 -2.5 61
2019-10-14 16:00:00 19.7 14 Sur 28 Sur 0 909.8 -3.1 63
2019-10-14 15:00:00 19.5 9 Sur 23 Sur 0 910.3 -3.7 68
2019-10-14 14:00:00 16.3 6 Sudeste 40 Sudeste 0 911.8 -2.3 78
2019-10-14 13:00:00 15 13 Sur 32 Sur 1.4 912.9 0.1 82
2019-10-14 12:00:00 15.8 4 Sudeste 12 Sur 0 914 0.7 90
2019-10-14 11:00:00 15.2 8 Sudoeste 17 Sudoeste 0.2 914.1 1.9 89
2019-10-14 10:00:00 14.6 6 Oeste 21 Sudeste 0.6 912.8 0.7 92
2019-10-14 09:00:00 13.4 4 Sudoeste 14 Sudoeste 0 913.3 1 95
2019-10-14 08:00:00 13.2 7 Sur 13 Sur 0 912.2 0 96
2019-10-14 07:00:00 12.3 3 Este 6 Sudeste 0 912.1 -1.2 95
2019-10-14 06:00:00 12.3 3 Sudeste 8 Este 0 912.3 -1.7 95
2019-10-14 05:00:00 12.7 5 Sur 14 Sudeste 0 912.2 -2.5 95
2019-10-14 04:00:00 12.8 2 Este 5 Oeste 0 913.3 -1.7 93
2019-10-14 03:00:00 13.8 3 Nordeste 10 Sur 0 914 -1.2 93
2019-10-14 02:00:00 14.1 4 Nordeste 7 Nordeste 0 914.7 -0.6 91
2019-10-14 01:00:00 15.2 2 Este 5 Sur 0 915 0 89
2019-10-14 00:00:00 16 2 Sur 5 Este 0 915.2 0.8 85
2019-10-13 23:00:00 17 3 Sudeste 10 Sur 0 915.3 1.3 79
2019-10-13 22:00:00 18.3 4 Sudeste 22 Sur 0 915 1.2 73
2019-10-13 21:00:00 19.1 8 Sur 18 Sudeste 0 914.4 0.7 72
2019-10-13 20:00:00 21.3 6 Sur 23 Sudoeste 0 914 0.4 34
2019-10-13 19:00:00 24.1 14 Sudoeste 26 Sudoeste 0 913.8 0 26
2019-10-13 18:00:00 25.6 14 Sudoeste 33 Sur 0 913.7 -0.6 29
2019-10-13 17:00:00 26.4 12 Sur 31 Sur 0 913.6 -1.3 32
2019-10-13 16:00:00 25.9 14 Sur 36 Sur 0 913.8 -1.8 36
2019-10-13 15:00:00 26.5 10 Sur 28 Sur 0 914.3 -1.8 38
2019-10-13 14:00:00 25.1 13 Sur 27 Sur 0 914.9 -1.3 46
2019-10-13 13:00:00 23.3 8 Sur 19 Sudeste 0 915.6 -0.3 55
2019-10-13 12:00:00 20.9 7 Sudeste 23 Sur 0 916.1 0.7 63
2019-10-13 11:00:00 19.1 9 Sur 19 Sur 0 916.2 1 68
2019-10-13 10:00:00 16.6 4 Sudeste 9 Sudoeste 0 915.9 0.7 78
2019-10-13 09:00:00 14.4 5 Sur 9 Sur 0 915.4 0.1 86
2019-10-13 08:00:00 14.6 3 Sudoeste 8 Sur 0 915.2 0.1 86
2019-10-13 07:00:00 14.6 3 Sur 7 Sudeste 0 915.2 -0.5 86
2019-10-13 06:00:00 14.4 6 Sur 12 Sur 0 915.3 -0.9 88
2019-10-13 05:00:00 13.7 4 Sudeste 9 Sur 0 915.1 -1.7 92
2019-10-13 04:00:00 14.6 2 Sudeste 5 Sur 0 915.7 -0.8 91
2019-10-13 03:00:00 14.8 3 Este 5 Sur 0 916.2 -0.5 93
2019-10-13 02:00:00 14.1 3 Este 12 Norte 0 916.8 0.2 93
2019-10-13 01:00:00 14.5 3 Este 5 Este 0 916.5 0.5 90
2019-10-13 00:00:00 15.7 2 Sudeste 10 Sur 0 916.7 1 91
2019-10-12 23:00:00 16.1 4 Sur 11 Sur 0 916.6 0.9 87
2019-10-12 22:00:00 17.2 6 Sudoeste 14 Sudoeste 0 916 0.7 82
2019-10-12 21:00:00 18.2 4 Sur 14 Sur 0 915.7 0.6 77
2019-10-12 20:00:00 19.3 5 Sur 15 Sur 0 915.7 0.4 70
2019-10-12 19:00:00 21.6 6 Sudeste 21 Sur 0 915.3 -0.3 61
2019-10-12 18:00:00 23.2 12 Sur 23 Sur 0 915.1 -0.8 50
2019-10-12 17:00:00 23.8 8 Sur 19 Sur 0 915.3 -1.3 48
2019-10-12 16:00:00 25 9 Sur 21 Sur 0 915.6 -1.5 44
2019-10-12 15:00:00 24.5 7 Este 24 Este 0 915.9 -1.7 49
2019-10-12 14:00:00 23.9 9 Este 22 Este 0 916.6 -0.8 51
2019-10-12 13:00:00 23.4 5 Sudeste 14 Sur 0 917.1 -0.4 49
2019-10-12 12:00:00 22.4 4 Sudeste 13 Sur 0 917.6 0.4 55
2019-10-12 11:00:00 19.6 4 Sudeste 12 Sudeste 0 917.4 0.4 67
2019-10-12 10:00:00 16.1 4 Sur 10 Sur 0 917.5 0.6 86
2019-10-12 09:00:00 14.5 2 Este 6 Sudeste 0 917.2 0.4 92
2019-10-12 08:00:00 14.2 3 Sudeste 8 Sur 0 917 0.2 91
2019-10-12 07:00:00 15.2 3 Sur 6 Sur 0 916.9 -0.5 89
2019-10-12 06:00:00 15.5 4 Este 5 Este 0 916.8 -0.9 88
2019-10-12 05:00:00 16 3 Sudeste 13 Sur 0 916.8 -1 86
2019-10-12 04:00:00 16.4 4 Sudeste 19 Sur 0 917.4 -0.8 87
2019-10-12 03:00:00 16.3 6 Sur 13 Sur 0 917.7 -0.8 87
2019-10-12 02:00:00 16.9 4 Sudeste 9 Sur 0 917.8 -0.4 85
2019-10-12 01:00:00 17.1 3 Sudeste 18 Sur 0 918.2 0.6 85
2019-10-12 00:00:00 17.2 5 Sur 15 Sur 0 918.5 1.2 86
2019-10-11 23:00:00 17.9 7 Sur 15 Este 0 918.2 1.4 81
2019-10-11 22:00:00 18.4 4 Este 14 Este 0 917.6 1 78
2019-10-11 21:00:00 19.4 6 Sudeste 22 Sudeste 0 917.3 0.7 72
2019-10-11 20:00:00 20.6 5 Este 18 Este 0 916.8 -0.1 66
2019-10-11 19:00:00 23.3 5 Sudeste 18 Sur 0 916.6 -0.7 51
2019-10-11 18:00:00 26 12 Sur 26 Sudoeste 0 916.6 -1.2 36
2019-10-11 17:00:00 25.9 13 Sudoeste 27 Sudoeste 0 916.9 -2 39
2019-10-11 16:00:00 26.3 17 Sudoeste 32 Sudoeste 0 917.3 -2.4 36
2019-10-11 15:00:00 25.9 18 Sudoeste 36 Sur 0 917.8 -2.3 36
2019-10-11 14:00:00 24.9 17 Sur 33 Sudoeste 0 918.9 -1.5 44
2019-10-11 13:00:00 23.3 13 Sur 29 Sur 0 919.7 -0.4 51
2019-10-11 12:00:00 21 6 Sur 18 Sudoeste 0 920.1 0.6 62
2019-10-11 11:00:00 18.5 8 Sur 17 Sur 0 920.4 1.1 72
2019-10-11 10:00:00 16.3 3 Este 8 Sudeste 0 920.1 0.9 80
2019-10-11 09:00:00 15.5 3 Sudeste 11 Sur 0 919.5 0.2 82
2019-10-11 08:00:00 15.4 4 Sur 10 Sur 0 919.3 0 84
2019-10-11 07:00:00 15.4 4 Sudeste 11 Sudeste 0 919.2 -0.3 85
2019-10-11 06:00:00 15.3 3 Sur 9 Sudeste 0 919.3 -0.5 86
2019-10-11 05:00:00 15.2 4 Sudeste 10 Sur 0 919.3 -0.5 86
2019-10-11 04:00:00 15.3 3 Sudeste 10 Sur 0 919.5 -0.5 87
2019-10-11 03:00:00 15.2 3 Sur 9 Sudeste 0 919.8 -0.1 88
2019-10-11 02:00:00 14.9 3 Sudeste 19 Sur 0 919.8 0.1 90
2019-10-11 01:00:00 14.5 6 Sur 19 Sur 0 920 0.6 91
2019-10-11 00:00:00 15.2 7 Sur 16 Sur 0 919.9 1.1 88
2019-10-10 23:00:00 15.8 3 Sudeste 15 Sudeste 0 919.7 1.3 85
2019-10-10 22:00:00 16.5 7 Sur 15 Sur 0 919.4 1.5 81
2019-10-10 21:00:00 17.3 6 Sur 16 Sur 0 918.8 1.2 75
2019-10-10 20:00:00 18.9 6 Sur 21 Sur 0 918.4 0.9 71
2019-10-10 19:00:00 21.1 13 Sur 23 Sur 0 917.9 0.2 59
2019-10-10 18:00:00 22.8 10 Sur 31 Sur 0 917.6 -0.5 54
2019-10-10 17:00:00 23.7 14 Sudoeste 30 Sur 0 917.5 -1.4 51
2019-10-10 16:00:00 24.3 13 Sur 29 Sudoeste 0 917.7 -1.8 49
2019-10-10 15:00:00 24 12 Sur 28 Sur 0 918.1 -1.6 50
2019-10-10 14:00:00 23 15 Sur 25 Sudoeste 0 918.9 -0.9 52
2019-10-10 13:00:00 21.7 6 Sudeste 15 Sudeste 0 919.5 -0.2 55
2019-10-10 12:00:00 19.9 4 Sudeste 10 Sudeste 0 919.7 0.4 59
2019-10-10 11:00:00 16.4 3 Sur 8 Sudoeste 0 919.8 1.3 55
2019-10-10 10:00:00 14.1 5 Sudoeste 11 Oeste 0 919.7 1.3 59
2019-10-10 09:00:00 13.9 4 Oeste 10 Oeste 0 919.3 1 62
2019-10-10 08:00:00 13.6 3 Sudoeste 5 Oeste 0 918.5 0.2 62
2019-10-10 07:00:00 13.6 3 Oeste 9 Sudoeste 0 918.4 -0.1 60
2019-10-10 06:00:00 13.5 5 Sudoeste 10 Oeste 0 918.3 -0.4 61
2019-10-10 05:00:00 13.7 5 Oeste 9 Oeste 0 918.3 -0.5 61
2019-10-10 04:00:00 13.8 5 Oeste 13 Oeste 0 918.5 -0.3 61
2019-10-10 03:00:00 13.9 6 Oeste 17 Oeste 0 918.7 0.4 60
2019-10-10 02:00:00 14.3 6 Oeste 19 Oeste 0 918.8 1.2 60
2019-10-10 01:00:00 14.5 9 Oeste 25 Oeste 0 918.8 2 61
2019-10-10 00:00:00 15.6 13 Oeste 23 Oeste 0 918.3 2 60
2019-10-09 23:00:00 16.9 9 Oeste 18 Noroeste 0 917.6 2.1 60
2019-10-09 22:00:00 19.1 4 Sudoeste 14 Nordeste 0 916.8 2.1 64
2019-10-09 21:00:00 19.6 6 Nordeste 18 Nordeste 0 916.3 2.3 59
2019-10-09 20:00:00 21.1 5 Nordeste 19 Nordeste 0 915.5 1.6 68
2019-10-09 19:00:00 23.3 10 Nordeste 33 Oeste 0 914.7 0.4 47
2019-10-09 18:00:00 27 8 Noroeste 18 Norte 0 914 -0.6 38
2019-10-09 17:00:00 27.9 5 Norte 15 Nordeste 0 913.9 -1.3 34
2019-10-09 16:00:00 27.5 6 Nordeste 14 Norte 0 914.3 -1.5 35
2019-10-09 15:00:00 27 6 Noroeste 16 Norte 0 914.6 -1.5 36
2019-10-09 14:00:00 25.7 7 Norte 15 Noroeste 0 915.2 -1.7 36
2019-10-09 13:00:00 23.7 6 Norte 13 Nordeste 0 915.8 -1 46
2019-10-09 12:00:00 21.6 5 Sur 9 Sur 0 916.1 0.1 57
2019-10-09 11:00:00 17.3 4 Sur 8 Sudoeste 0 916.9 1.3 68
2019-10-09 10:00:00 13 3 Nordeste 9 Norte 0 916.8 1.4 83
2019-10-09 09:00:00 9.9 3 Sudeste 5 Sur 0 916 0.6 93
2019-10-09 08:00:00 10 4 Noroeste 6 Noroeste 0 915.6 0.2 93
2019-10-09 07:00:00 10.1 0 Calma 5 Oeste 0 915.4 -0.2 91
2019-10-09 06:00:00 10.4 3 Oeste 7 Oeste 0 915.4 -0.6 90
2019-10-09 05:00:00 10.9 0 Calma 5 Oeste 0 915.4 -0.8 86
2019-10-09 04:00:00 11.7 0 Calma 5 Oeste 0 915.6 -0.6 85
2019-10-09 03:00:00 12.6 0 Calma 5 Nordeste 0 916 -0.2 86
2019-10-09 02:00:00 13.6 4 Oeste 7 Oeste 0 916.2 0.2 81
2019-10-09 01:00:00 15 0 Calma 3 Norte 0 916.2 0.6 77
2019-10-09 00:00:00 16.2 3 Norte 8 Nordeste 0 916.2 0.7 74
2019-10-08 23:00:00 18 2 Norte 8 Norte 0 916 0.8 67
2019-10-08 22:00:00 19.7 4 Este 10 Sur 0 915.6 0.9 60
2019-10-08 21:00:00 21 5 Sudeste 14 Sudeste 0 915.5 0.9 55
2019-10-08 20:00:00 23.5 5 Sudeste 19 Sudoeste 0 915.2 0.3 48
2019-10-08 19:00:00 26.9 10 Sur 19 Sudoeste 0 914.7 -0.6 36
2019-10-08 18:00:00 28.9 7 Sur 13 Sudoeste 0 914.6 -1.3 33
2019-10-08 17:00:00 29.1 4 Sudeste 14 Sur 0 914.9 -1.9 31
2019-10-08 16:00:00 28.3 4 Sur 12 Este 0 915.3 -2.6 33
2019-10-08 15:00:00 27.5 5 Este 12 Este 0 915.9 -2.6 36
2019-10-08 14:00:00 25.5 4 Sur 12 Este 0 916.8 -2 40
2019-10-08 13:00:00 23.6 5 Sur 14 Sur 0 917.9 -0.8 42
2019-10-08 12:00:00 20.9 5 Sudeste 12 Sudeste 0 918.5 0 44
2019-10-08 11:00:00 16.9 5 Este 9 Este 0 918.8 0.7 55
2019-10-08 10:00:00 12 3 Sudoeste 6 Oeste 0 918.7 0.7 72
2019-10-08 09:00:00 9.1 3 Oeste 9 Oeste 0 918.5 0.6 83
2019-10-08 08:00:00 8.6 4 Noroeste 8 Oeste 0 918.1 0.1 84
2019-10-08 07:00:00 8.9 3 Sur 8 Oeste 0 918 0.1 84
2019-10-08 06:00:00 10.1 3 Noroeste 8 Norte 0 917.9 -0.2 77
2019-10-08 05:00:00 11 3 Norte 6 Norte 0 918 -0.1 73
2019-10-08 04:00:00 11.7 4 Sur 8 Oeste 0 917.9 -0.3 68
2019-10-08 03:00:00 13 3 Sudeste 8 Sur 0 918.1 0 64
2019-10-08 02:00:00 14.3 6 Oeste 10 Oeste 0 918.1 0.3 57
2019-10-08 01:00:00 14.7 4 Norte 14 Oeste 0 918.2 0.9 60
2019-10-08 00:00:00 16.7 7 Oeste 14 Oeste 0 918.1 1.5 59
2019-10-07 23:00:00 18.5 6 Norte 17 Norte 0 917.8 1.6 54
2019-10-07 22:00:00 18.6 6 Sudoeste 14 Noroeste 0 917.3 1.5 54
2019-10-07 21:00:00 20 6 Noroeste 15 Noroeste 0 916.6 1.3 49
2019-10-07 20:00:00 22.1 4 Noroeste 27 Noroeste 0 916.2 0.9 42
2019-10-07 19:00:00 24 15 Noroeste 31 Noroeste 0 915.8 0.1 37
2019-10-07 18:00:00 25 17 Noroeste 36 Noroeste 0 915.3 -0.5 35
2019-10-07 17:00:00 26 13 Norte 35 Noroeste 0 915.3 -1.2 30
2019-10-07 16:00:00 25.1 14 Norte 36 Norte 0 915.7 -1.2 28
2019-10-07 15:00:00 24.2 12 Noroeste 31 Noroeste 0 915.8 -1.6 26
2019-10-07 14:00:00 24 14 Noroeste 31 Noroeste 0 916.5 -1.2 24
2019-10-07 13:00:00 22.4 11 Norte 30 Noroeste 0 916.9 -1 24
2019-10-07 12:00:00 19.2 14 Noroeste 33 Norte 0 917.4 0 27
2019-10-07 11:00:00 15.3 12 Noroeste 23 Noroeste 0 917.7 0.6 47
2019-10-07 10:00:00 8.8 3 Sur 5 Sur 0 917.9 1 93
2019-10-07 09:00:00 7.7 2 Sudoeste 6 Norte 0 917.4 0.3 92
2019-10-07 08:00:00 8.2 2 Norte 4 Sudeste 0 917.1 -0.1 92
2019-10-07 07:00:00 8.7 3 Oeste 6 Oeste 0 916.9 -0.6 89
2019-10-07 06:00:00 9.6 3 Norte 9 Oeste 0 917.1 -0.7 89
2019-10-07 05:00:00 9.9 3 Noroeste 6 Oeste 0 917.2 -0.4 88
2019-10-07 04:00:00 11.2 5 Oeste 8 Oeste 0 917.5 -0.7 85
2019-10-07 03:00:00 11.6 3 Oeste 7 Oeste 0 917.8 -0.5 83
2019-10-07 02:00:00 12.1 4 Oeste 12 Noroeste 0 917.6 -0.2 80
2019-10-07 01:00:00 13.4 5 Noroeste 10 Noroeste 0 918.2 0.7 74
2019-10-07 00:00:00 14.5 6 Noroeste 16 Noroeste 0 918.3 2 71
2019-10-06 23:00:00 15.7 6 Oeste 19 Oeste 0 917.8 2 67
2019-10-06 22:00:00 17 5 Norte 15 Norte 0 917.5 2 61
2019-10-06 21:00:00 18.5 4 Noroeste 6 Norte 0 916.3 0.9 50
2019-10-06 20:00:00 21.2 4 Oeste 14 Noroeste 0 915.8 0 44
2019-10-06 19:00:00 23.7 6 Noroeste 22 Noroeste 0 915.5 -0.9 37
2019-10-06 18:00:00 25 10 Noroeste 19 Noroeste 0 915.4 -1.1 32
2019-10-06 17:00:00 25.6 6 Noroeste 18 Noroeste 0 915.8 -1.4 31
2019-10-06 16:00:00 24.9 9 Noroeste 17 Noroeste 0 916.4 -1.4 34
2019-10-06 15:00:00 24.5 3 Norte 12 Norte 0 916.5 -1.7 36
2019-10-06 14:00:00 23.8 6 Nordeste 17 Noroeste 0 917.2 -1.1 38
2019-10-06 13:00:00 22.2 7 Noroeste 14 Noroeste 0 917.8 -0.2 41
2019-10-06 12:00:00 19.9 4 Sudeste 9 Sur 0 918.2 0.7 53
2019-10-06 11:00:00 15.9 3 Sudoeste 5 Este 0 918.3 1.6 65
2019-10-06 10:00:00 10.8 3 Sudoeste 6 Noroeste 0 918 1.4 82
2019-10-06 09:00:00 7.6 0 Calma 5 Noroeste 0 917.5 1.1 89
2019-10-06 08:00:00 6.7 4 Oeste 7 Oeste 0 916.7 0.2 90
2019-10-06 07:00:00 7.8 3 Oeste 5 Oeste 0 916.6 0.1 89
2019-10-06 06:00:00 8.1 0 Calma 5 Noroeste 0 916.4 -0.4 86
2019-10-06 05:00:00 9 3 Norte 6 Norte 0 916.5 0.2 87
2019-10-06 04:00:00 9.8 2 Norte 8 Noroeste 0 916.5 0.3 83
2019-10-06 03:00:00 10.4 3 Noroeste 6 Noroeste 0 916.8 0.7 82
2019-10-06 02:00:00 11.7 2 Noroeste 6 Norte 0 916.3 0.4 77
2019-10-06 01:00:00 13 4 Norte 6 Norte 0 916.2 0.9 75
2019-10-06 00:00:00 14.6 0 Calma 6 Norte 0 916.1 1.6 70
2019-10-05 23:00:00 16.1 3 Noroeste 9 Oeste 0 915.9 2 73
2019-10-05 22:00:00 18.1 4 Oeste 10 Nordeste 0 915.3 1.9 73
2019-10-05 21:00:00 20.2 3 Este 15 Este 0 914.5 1.2 65
2019-10-05 20:00:00 22.4 0 Calma 5 Nordeste 0 913.9 0.6 44
2019-10-05 19:00:00 25.9 3 Nordeste 11 Este 0 913.4 -0.2 35
2019-10-05 18:00:00 27 3 Nordeste 12 Norte 0 913.3 -0.8 32
2019-10-05 17:00:00 27.3 5 Nordeste 11 Sur 0 913.3 -1.4 32
2019-10-05 16:00:00 26.8 6 Sudoeste 15 Sudoeste 0 913.6 -1.6 33
2019-10-05 15:00:00 26.1 5 Sudoeste 13 Sur 0 914.1 -1.4 34
2019-10-05 14:00:00 24.7 5 Sur 13 Sur 0 914.7 -1.1 37
2019-10-05 13:00:00 22.3 4 Norte 8 Nordeste 0 915.2 -0.4 47
2019-10-05 12:00:00 19.5 4 Este 8 Sudoeste 0 915.5 0 54
2019-10-05 11:00:00 15.5 4 Sudoeste 7 Sudoeste 0 915.8 0.7 67
2019-10-05 10:00:00 10.9 4 Oeste 7 Oeste 0 915.6 0.5 83
2019-10-05 09:00:00 7.2 2 Sudoeste 5 Norte 0 915.5 0.3 91
2019-10-05 08:00:00 7.3 0 Calma 4 Noroeste 0 915.1 -0.2 87
2019-10-05 07:00:00 7.8 2 Norte 9 Norte 0 915.1 -0.1 88
2019-10-05 06:00:00 8.3 0 Calma 6 Oeste 0 915.2 -0.2 85
2019-10-05 05:00:00 9.2 3 Noroeste 5 Norte 0 915.3 0.2 81
2019-10-05 04:00:00 9.4 2 Noroeste 7 Norte 0 915.2 -0.1 79
2019-10-05 03:00:00 10 3 Nordeste 6 Nordeste 0 915.4 0.2 77
2019-10-05 02:00:00 11.2 3 Noroeste 9 Noroeste 0 915.1 0.6 70
2019-10-05 01:00:00 12.1 2 Norte 6 Oeste 0 915.3 1 67
2019-10-05 00:00:00 13.6 3 Oeste 8 Oeste 0 915.2 1.4 60
2019-10-04 23:00:00 15.4 3 Norte 8 Noroeste 0 914.5 1.2 49
2019-10-04 22:00:00 17.9 3 Nordeste 9 Nordeste 0 914.3 1.6 39
2019-10-04 21:00:00 20.3 4 Norte 12 Noroeste 0 913.8 1.1 34
2019-10-04 20:00:00 22.2 4 Nordeste 15 Sur 0 913.3 0.4 30
2019-10-04 19:00:00 25.2 6 Sur 24 Sur 0 912.7 -0.9 28
2019-10-04 18:00:00 27.9 9 Sur 24 Sudoeste 0 912.7 -1.6 22
2019-10-04 17:00:00 29 8 Sur 21 Sur 0 912.9 -2.5 20
2019-10-04 16:00:00 28.1 5 Sudeste 14 Sudeste 0 913.6 -2.6 25
2019-10-04 15:00:00 27 4 Sudeste 10 Sudeste 0 914.3 -2.7 26
2019-10-04 14:00:00 24.7 5 Nordeste 9 Nordeste 0 915.4 -2.1 28
2019-10-04 13:00:00 22.3 3 Sur 8 Sur 0 916.2 -1.3 34
2019-10-04 12:00:00 19.3 4 Este 8 Este 0 917 -0.1 41
2019-10-04 11:00:00 15.1 3 Sudeste 6 Este 0 917.5 0.6 56
2019-10-04 10:00:00 10.2 0 Calma 6 Norte 0 917.5 0.6 74
2019-10-04 09:00:00 6.5 5 Oeste 8 Oeste 0 917.1 0.2 85
2019-10-04 08:00:00 6.1 2 Oeste 5 Sudoeste 0 916.9 -0.1 84
2019-10-04 07:00:00 6.7 0 Calma 7 Oeste 0 916.9 -0.1 82
2019-10-04 06:00:00 7 4 Norte 9 Oeste 0 916.9 -0.4 80
2019-10-04 05:00:00 7.7 5 Oeste 8 Oeste 0 917 -0.2 77
2019-10-04 04:00:00 8 2 Noroeste 6 Norte 0 917 -0.1 73
2019-10-04 03:00:00 8.7 0 Calma 4 Nordeste 0 917.3 0.5 72
2019-10-04 02:00:00 10 2 Noroeste 8 Norte 0 917.2 0.5 64
2019-10-04 01:00:00 11.1 5 Nordeste 8 Nordeste 0 917.1 0.8 60
2019-10-04 00:00:00 13.1 4 Norte 7 Noroeste 0 916.8 1.1 52
2019-10-03 23:00:00 14.5 4 Norte 11 Oeste 0 916.7 1.9 46
2019-10-03 22:00:00 15.8 5 Oeste 12 Oeste 0 916.3 2.2 49
2019-10-03 21:00:00 18.4 3 Noroeste 9 Noroeste 0 915.7 1.7 33
2019-10-03 20:00:00 21.3 5 Oeste 14 Noroeste 0 914.8 0.5 26
2019-10-03 19:00:00 24.8 5 Norte 19 Norte 0 914.1 -0.6 17
2019-10-03 18:00:00 25.7 6 Norte 18 Norte 0 914 -0.9 17
2019-10-03 17:00:00 25.9 8 Norte 21 Nordeste 0 914.3 -1.5 17
2019-10-03 16:00:00 25.3 9 Norte 22 Noroeste 0 914.7 -1.8 17
2019-10-03 15:00:00 24.1 9 Noroeste 22 Noroeste 0 914.9 -2.1 22
2019-10-03 14:00:00 22 9 Noroeste 24 Noroeste 0 915.8 -1.5 33
2019-10-03 13:00:00 19.6 6 Norte 17 Norte 0 916.5 -0.6 39
2019-10-03 12:00:00 15 4 Oeste 10 Sudoeste 0 917 0.3 59
2019-10-03 11:00:00 11.6 4 Sudoeste 7 Sur 0 917.3 0.7 75
2019-10-03 10:00:00 8.9 2 Sudoeste 4 Oeste 0 917.1 0.8 85
2019-10-03 09:00:00 6.9 0 Calma 6 Noroeste 0 916.7 0.3 91
2019-10-03 08:00:00 6.3 3 Sudeste 5 Oeste 0 916.6 0.2 90
2019-10-03 07:00:00 7.6 3 Oeste 5 Oeste 0 916.3 -0.1 89
2019-10-03 06:00:00 7.8 0 Calma 4 Noroeste 0 916.4 -0.6 90
2019-10-03 05:00:00 8.4 4 Oeste 8 Sudoeste 0 916.4 -0.8 87
2019-10-03 04:00:00 9 5 Oeste 10 Noroeste 0 916.4 -0.9 83
2019-10-03 03:00:00 9.5 6 Oeste 11 Oeste 0 917 -0.4 84
2019-10-03 02:00:00 10.8 4 Oeste 15 Noroeste 0 917.2 0.2 77
2019-10-03 01:00:00 11.6 6 Noroeste 17 Noroeste 0 917.3 0.5 74
2019-10-03 00:00:00 12.4 9 Noroeste 17 Noroeste 0 917.4 1.5 66
2019-10-02 23:00:00 13.1 7 Noroeste 15 Norte 0 917 1.7 64
2019-10-02 22:00:00 14.4 5 Noroeste 17 Nordeste 0 916.8 1.9 59
2019-10-02 21:00:00 15.6 4 Nordeste 19 Nordeste 0 915.9 1.5 55
2019-10-02 20:00:00 17.3 5 Nordeste 23 Noroeste 0 915.3 1 47
2019-10-02 19:00:00 19.5 11 Noroeste 29 Oeste 0 914.9 0.3 39
2019-10-02 18:00:00 20.5 12 Noroeste 30 Noroeste 0 914.4 -0.4 36
2019-10-02 17:00:00 20.8 14 Noroeste 33 Norte 0 914.3 -0.5 36
2019-10-02 16:00:00 20.8 13 Noroeste 32 Noroeste 0 914.6 -0.3 36
2019-10-02 15:00:00 20.1 13 Norte 33 Noroeste 0 914.8 -0.4 36
2019-10-02 14:00:00 20 14 Noroeste 31 Norte 0 914.8 -0.2 37
2019-10-02 13:00:00 19.3 12 Noroeste 32 Norte 0 914.9 0.1 38
2019-10-02 12:00:00 16.4 12 Norte 29 Norte 0 915.2 0.8 50
2019-10-02 11:00:00 15.8 12 Noroeste 29 Noroeste 0 915 1.3 59
2019-10-02 10:00:00 14.8 14 Noroeste 28 Noroeste 0 914.8 1.4 62
2019-10-02 09:00:00 13.2 10 Noroeste 27 Norte 0 914.4 1.4 66
2019-10-02 08:00:00 10.9 8 Oeste 14 Noroeste 0 913.7 0.7 75
2019-10-02 07:00:00 10.6 5 Noroeste 10 Noroeste 0 913.4 0.6 76
2019-10-02 06:00:00 10.7 3 Oeste 9 Oeste 0 913 -0.3 78
2019-10-02 05:00:00 12.3 6 Oeste 14 Noroeste 0 913 -0.1 71
2019-10-02 04:00:00 11.5 6 Noroeste 13 Noroeste 0 912.8 -0.4 77
2019-10-02 03:00:00 12.6 3 Norte 10 Nordeste 0 913.3 0.4 73
2019-10-02 02:00:00 13 4 Norte 10 Noroeste 0 913.1 0.5 71
2019-10-02 01:00:00 14.4 7 Noroeste 11 Noroeste 0 913.2 1 65
2019-10-02 00:00:00 15.3 5 Norte 8 Norte 0 912.9 1.2 62
2019-10-01 23:00:00 17.4 4 Oeste 9 Noroeste 0 912.6 1.9 54
2019-10-01 22:00:00 19.5 5 Noroeste 22 Noroeste 0 912.2 2.1 47
2019-10-01 21:00:00 20.9 8 Noroeste 17 Noroeste 0 911.7 1.9 43
2019-10-01 20:00:00 22.9 7 Noroeste 18 Noroeste 0 910.7 0.9 39
2019-10-01 19:00:00 26.1 8 Noroeste 23 Oeste 0 910.1 0.1 31
2019-10-01 18:00:00 27.7 11 Oeste 26 Noroeste 0 909.8 -0.5 20
2019-10-01 17:00:00 28.6 8 Oeste 26 Sudoeste 0 909.8 -1.4 21
2019-10-01 16:00:00 28.8 12 Oeste 22 Oeste 0 910 -2 18
2019-10-01 15:00:00 28.3 5 Oeste 13 Sudoeste 0 910.3 -2.4 21
2019-10-01 14:00:00 27.8 4 Sudeste 11 Sudoeste 0 911.2 -2 24
2019-10-01 13:00:00 25.8 4 Este 9 Sudeste 0 912 -1.1 28
2019-10-01 12:00:00 21.7 3 Sur 6 Sur 0 912.7 -0.3 51
2019-10-01 11:00:00 16.9 3 Este 6 Sudoeste 0 913.2 0.2 69
2019-10-01 10:00:00 12.2 3 Oeste 6 Oeste 0 913.1 0.1 83
2019-10-01 09:00:00 9.2 0 Calma 5 Oeste 0 913 -0.1 86
2019-10-01 08:00:00 8.7 3 Oeste 8 Oeste 0 913 -0.4 86
2019-10-01 07:00:00 9.1 2 Noroeste 4 Oeste 0 913 -0.9 86
2019-10-01 06:00:00 9.5 3 Oeste 5 Oeste 0 913.1 -1.6 82
2019-10-01 05:00:00 10.4 3 Oeste 8 Oeste 0 913.4 -1.3 78
2019-10-01 04:00:00 11 5 Oeste 10 Oeste 0 913.9 -1.1 74
2019-10-01 03:00:00 11.7 4 Oeste 7 Oeste 0 914.7 -0.2 74
2019-10-01 02:00:00 13.3 0 Calma 6 Oeste 0 914.7 -0.2 69
2019-10-01 01:00:00 14.7 2 Oeste 8 Oeste 0 915 0.3 64
2019-10-01 00:00:00 15.4 6 Oeste 8 Oeste 0 914.9 0.7 65
2019-09-30 23:00:00 18.3 3 Noroeste 6 Sudeste 0 914.9 1.2 69
2019-09-30 22:00:00 19.5 0 Calma 8 Sur 0 914.7 1.4 66
2019-09-30 21:00:00 21.9 5 Sur 12 Sur 0 914.2 0.6 61
2019-09-30 20:00:00 24.1 5 Sudeste 19 Sur 0 913.7 -0.3 50
2019-09-30 19:00:00 28 11 Sur 26 Sur 0 913.3 -1.3 20
2019-09-30 18:00:00 29.4 15 Sur 24 Sur 0 913.6 -1.5 17
2019-09-30 17:00:00 30.2 14 Sur 25 Sur 0 914 -2.1 19
2019-09-30 16:00:00 30.5 11 Sur 23 Sur 0 914.6 -2.3 18
2019-09-30 15:00:00 29.7 9 Sur 21 Sur 0 915.1 -2.4 19
2019-09-30 14:00:00 28.3 6 Sur 14 Sudeste 0 916.1 -1.8 24
2019-09-30 13:00:00 25 4 Este 7 Este 0 916.9 -1 32
2019-09-30 12:00:00 21.4 4 Sur 6 Sudoeste 0 917.5 -0.2 41
2019-09-30 11:00:00 17.1 3 Norte 9 Norte 0 917.9 0.4 51
2019-09-30 10:00:00 12.5 0 Calma 5 Oeste 0 917.9 0.7 74
2019-09-30 09:00:00 8.9 2 Oeste 5 Oeste 0 917.7 0.6 84
2019-09-30 08:00:00 8.2 2 Noroeste 4 Oeste 0 917.5 0.5 86
2019-09-30 07:00:00 8.3 0 Calma 7 Oeste 0 917.2 0.1 85
2019-09-30 06:00:00 9.2 2 Norte 5 Oeste 0 917.1 -0.4 83
2019-09-30 05:00:00 9.8 3 Oeste 5 Oeste 0 917 -0.5 81
2019-09-30 04:00:00 11.1 0 Calma 6 Oeste 0 917.1 -0.4 74
2019-09-30 03:00:00 11.7 2 Oeste 6 Norte 0 917.5 0.2 73
2019-09-30 02:00:00 12.7 3 Noroeste 8 Norte 0 917.5 0.5 70
2019-09-30 01:00:00 13.3 3 Nordeste 5 Oeste 0 917.5 0.9 67
2019-09-30 00:00:00 14.6 2 Oeste 5 Oeste 0 917.3 1.6 64
2019-09-29 23:00:00 16.4 5 Oeste 7 Norte 0 917 1.9 58
2019-09-29 22:00:00 19.1 3 Nordeste 5 Nordeste 0 916.6 1.9 44
2019-09-29 21:00:00 21.8 2 Nordeste 13 Noroeste 0 915.7 0.9 35
2019-09-29 20:00:00 25.9 6 Noroeste 16 Noroeste 0 915.1 0 24
2019-09-29 19:00:00 29.1 3 Sudoeste 11 Este 0 914.7 -0.8 25
2019-09-29 18:00:00 30.4 5 Oeste 10 Oeste 0 914.8 -1.3 21
2019-09-29 17:00:00 30.4 4 Este 13 Sur 0 915.1 -1.8 24
2019-09-29 16:00:00 30.1 4 Sudeste 13 Sur 0 915.5 -1.8 26
2019-09-29 15:00:00 29.4 8 Sur 18 Sur 0 916.1 -1.9 27
2019-09-29 14:00:00 27.8 4 Sur 13 Sur 0 916.9 -1.3 31
2019-09-29 13:00:00 25 4 Sudeste 10 Sudeste 0 917.3 -0.7 49
2019-09-29 12:00:00 20.9 3 Sur 10 Nordeste 0 918 0.3 71
2019-09-29 11:00:00 18.6 4 Sudeste 10 Sur 0 918.2 0.8 77
2019-09-29 10:00:00 16.3 5 Nordeste 8 Nordeste 0 918 0.7 88
2019-09-29 09:00:00 16.2 0 Calma 5 Nordeste 0 917.7 0.3 89
2019-09-29 08:00:00 16.4 2 Sudoeste 6 Sudoeste 0 917.4 -0.3 91
2019-09-29 07:00:00 16.5 4 Sur 8 Sur 0 917.3 -0.6 90
2019-09-29 06:00:00 17 3 Sur 9 Sudeste 0 917.4 -1 89
2019-09-29 05:00:00 16.9 3 Sur 6 Sudoeste 0 917.7 -0.6 90
2019-09-29 04:00:00 16.8 3 Sudoeste 8 Oeste 0 917.9 -0.6 87
2019-09-29 03:00:00 17.6 2 Sur 8 Sur 0 918.4 0 88
2019-09-29 02:00:00 17.5 3 Sur 10 Sur 0 918.3 0 87
2019-09-29 01:00:00 17.3 3 Este 11 Este 0 918.5 0.6 89
2019-09-29 00:00:00 17.8 5 Este 14 Sudeste 0 918.4 0.8 87
2019-09-28 23:00:00 19 4 Sudeste 9 Sur 0 918.3 1.2 79
2019-09-28 22:00:00 19.8 3 Este 15 Sur 0 917.9 1.1 72
2019-09-28 21:00:00 20.5 5 Sudeste 18 Sur 0 917.6 0.8 68
2019-09-28 20:00:00 22.4 6 Sudeste 18 Sur 0 917.1 0.1 65
2019-09-28 19:00:00 26.5 8 Sur 28 Sur 0 916.8 -0.6 34
2019-09-28 18:00:00 27.8 13 Sur 38 Sur 0 916.8 -1.1 28
2019-09-28 17:00:00 28.7 14 Sur 28 Sur 0 917 -1.7 27
2019-09-28 16:00:00 28.9 8 Sur 26 Sur 0 917.4 -1.7 29
2019-09-28 15:00:00 28.3 9 Sudeste 27 Sur 0 917.9 -1.7 27
2019-09-28 14:00:00 27.3 12 Sur 23 Sur 0 918.7 -1.4 30
2019-09-28 13:00:00 24.8 5 Sudeste 13 Sudeste 0 919.1 -0.8 41
2019-09-28 12:00:00 21.2 3 Sur 6 Sur 0 919.6 0.1 47
2019-09-28 11:00:00 17 4 Nordeste 6 Nordeste 0 920.1 1.3 60
2019-09-28 10:00:00 13.1 3 Sur 7 Oeste 0 919.9 1.3 74
2019-09-28 09:00:00 9.1 3 Oeste 6 Noroeste 0 919.5 0.7 91
2019-09-28 08:00:00 8.6 2 Norte 5 Oeste 0 918.8 0 90
2019-09-28 07:00:00 8.8 2 Oeste 4 Oeste 0 918.6 0.1 87
2019-09-28 06:00:00 10 0 Calma 5 Oeste 0 918.8 0.3 87
2019-09-28 05:00:00 10.3 0 Calma 5 Oeste 0 918.8 0.2 89
2019-09-28 04:00:00 11.1 2 Noroeste 7 Nordeste 0 918.5 -0.1 82
2019-09-28 03:00:00 12.2 0 Calma 6 Oeste 0 918.5 0.3 74
2019-09-28 02:00:00 13.4 0 Calma 8 Oeste 0 918.6 0.8 76
2019-09-28 01:00:00 14.4 2 Norte 5 Norte 0 918.6 1.3 69
2019-09-28 00:00:00 16.1 0 Calma 8 Oeste 0 918.2 1.8 63
2019-09-27 23:00:00 18.2 5 Oeste 10 Oeste 0 917.8 2.3 58
2019-09-27 22:00:00 21 5 Noroeste 9 Norte 0 917.3 2.2 61
2019-09-27 21:00:00 23 5 Noroeste 15 Noroeste 0 916.4 1.4 41
2019-09-27 20:00:00 24.6 8 Oeste 12 Oeste 0 915.5 0.5 43
2019-09-27 19:00:00 27.3 2 Sudoeste 19 Sudoeste 0 915.1 -0.4 34
2019-09-27 18:00:00 29.2 9 Sur 22 Sur 0 915 -1.2 28
2019-09-27 17:00:00 28.8 6 Sudeste 16 Sudeste 0 915 -1.8 31
2019-09-27 16:00:00 29 5 Este 16 Sur 0 915.5 -1.8 31
2019-09-27 15:00:00 28.3 4 Sudeste 14 Sudeste 0 916.2 -1.7 32
2019-09-27 14:00:00 26.8 5 Sur 12 Sur 0 916.8 -1.5 33
2019-09-27 13:00:00 25.1 4 Sur 9 Sudoeste 0 917.3 -1.2 37
2019-09-27 12:00:00 21.9 3 Este 6 Sudeste 0 917.9 -0.4 49
2019-09-27 11:00:00 18.3 3 Sudeste 6 Este 0 918.3 0.1 65
2019-09-27 10:00:00 14.3 2 Sudeste 5 Oeste 0 918.5 0.7 79
2019-09-27 09:00:00 10.6 4 Oeste 5 Oeste 0 918.3 0.8 91
2019-09-27 08:00:00 10.2 0 Calma 5 Oeste 0 918.2 0.7 90
2019-09-27 07:00:00 10.9 2 Norte 5 Norte 0 917.8 0.1 91
2019-09-27 06:00:00 11 3 Oeste 5 Oeste 0 917.5 -0.3 90
2019-09-27 05:00:00 11.8 0 Calma 7 Oeste 0 917.5 -0.3 85
2019-09-27 04:00:00 12.6 0 Calma 4 Norte 0 917.7 -0.3 84
2019-09-27 03:00:00 13.7 0 Calma 8 Oeste 0 917.8 -0.1 80
2019-09-27 02:00:00 14.5 3 Oeste 6 Oeste 0 917.8 0.2 76
2019-09-27 01:00:00 16.2 3 Norte 5 Noroeste 0 918 0.7 72
2019-09-27 00:00:00 17.5 4 Norte 12 Sur 0 917.9 1.3 65
2019-09-26 23:00:00 19 4 Oeste 8 Sudeste 0 917.6 1.5 56
2019-09-26 22:00:00 20.3 2 Noroeste 12 Sur 0 917.3 1.5 54
2019-09-26 21:00:00 21.8 5 Sur 15 Sur 0 916.6 0.8 45
2019-09-26 20:00:00 24.3 9 Sur 20 Sur 0 916.1 0.1 37
2019-09-26 19:00:00 26.6 10 Sur 23 Sur 0 915.8 -0.5 32
2019-09-26 18:00:00 28 12 Sur 23 Sur 0 915.8 -0.8 30
2019-09-26 17:00:00 28.7 10 Sur 19 Sur 0 916 -1.4 29
2019-09-26 16:00:00 27.9 8 Sur 22 Sudoeste 0 916.3 -1.8 28
2019-09-26 15:00:00 27.1 7 Sur 17 Sudoeste 0 916.6 -2.1 31
2019-09-26 14:00:00 25.5 6 Sudeste 13 Sur 0 917.4 -1.6 34
2019-09-26 13:00:00 23.6 5 Sudeste 10 Sudeste 0 918.1 -0.6 40
2019-09-26 12:00:00 20.5 3 Este 8 Este 0 918.7 0.2 52
2019-09-26 11:00:00 17.1 3 Sudeste 6 Sudoeste 0 919 0.9 59
2019-09-26 10:00:00 13.1 5 Norte 7 Norte 0 918.7 1 74
2019-09-26 09:00:00 10 0 Calma 3 Noroeste 0 918.5 1 89
2019-09-26 08:00:00 8.9 3 Sudoeste 5 Noroeste 0 918.1 0.6 92
2019-09-26 07:00:00 9.7 0 Calma 7 Norte 0 917.7 0.4 88
2019-09-26 06:00:00 10.1 0 Calma 6 Norte 0 917.5 0.1 87
2019-09-26 05:00:00 10.6 2 Norte 7 Nordeste 0 917.5 0.1 85
2019-09-26 04:00:00 11.3 3 Oeste 6 Noroeste 0 917.3 0 84
2019-09-26 03:00:00 12.1 2 Norte 6 Noroeste 0 917.4 0.3 82
2019-09-26 02:00:00 13 2 Nordeste 7 Norte 0 917.4 0.5 78
2019-09-26 01:00:00 14 0 Calma 6 Noroeste 0 917.3 0.8 71
2019-09-26 00:00:00 15 2 Norte 7 Oeste 0 917.1 1.4 65
2019-09-25 23:00:00 16.4 5 Oeste 8 Oeste 0 916.9 2 57
2019-09-25 22:00:00 17.9 0 Calma 13 Norte 0 916.5 1.8 54
2019-09-25 21:00:00 18.5 5 Norte 12 Norte 0 915.7 1.3 51
2019-09-25 20:00:00 20.9 6 Noroeste 11 Noroeste 0 914.9 0.5 42
2019-09-25 19:00:00 23.1 4 Oeste 11 Oeste 0 914.7 -0.1 38
2019-09-25 18:00:00 24.2 5 Sudoeste 10 Este 0 914.4 -0.8 38
2019-09-25 17:00:00 24 3 Nordeste 10 Nordeste 0 914.4 -1.3 41
2019-09-25 16:00:00 23.6 6 Nordeste 13 Nordeste 0 914.8 -1.2 40
2019-09-25 15:00:00 22.5 6 Nordeste 16 Nordeste 0 915.2 -1.3 41
2019-09-25 14:00:00 21.2 5 Nordeste 19 Nordeste 0 915.7 -0.8 44
2019-09-25 13:00:00 19.9 6 Noroeste 21 Norte 0 916 0 48
2019-09-25 12:00:00 19 9 Noroeste 22 Norte 0 916.5 1.1 51
2019-09-25 11:00:00 17.4 10 Noroeste 21 Norte 0 916.5 1.4 56
2019-09-25 10:00:00 15.9 6 Norte 18 Norte 0 916 1.3 67
2019-09-25 09:00:00 15.6 3 Norte 12 Norte 0 915.4 1 75
2019-09-25 08:00:00 13.8 3 Noroeste 8 Nordeste 0 915.1 0.8 85
2019-09-25 07:00:00 12.3 4 Este 8 Sudeste 0 914.7 0.3 93
2019-09-25 06:00:00 12.7 2 Oeste 6 Norte 0 914.4 -0.1 88
2019-09-25 05:00:00 13.5 0 Calma 4 Noroeste 0 914.3 -0.3 86
2019-09-25 04:00:00 13.4 3 Norte 8 Noroeste 0 914.4 -0.4 86
2019-09-25 03:00:00 13.4 3 Noroeste 8 Oeste 0 914.5 -0.4 86
2019-09-25 02:00:00 14.2 4 Norte 6 Norte 0 914.6 -0.7 82
2019-09-25 01:00:00 15.5 3 Norte 8 Oeste 0 914.8 -0.6 75
2019-09-25 00:00:00 16.9 4 Este 8 Nordeste 0 914.9 0.1 70
2019-09-24 23:00:00 17.9 3 Norte 8 Noroeste 0 915.3 1 63
2019-09-24 22:00:00 19.3 4 Noroeste 9 Oeste 0 915.4 1.3 54
2019-09-24 21:00:00 21.5 5 Oeste 11 Noroeste 0 914.8 0.8 47
2019-09-24 20:00:00 24.5 5 Oeste 21 Noroeste 0 914.3 0.3 40
2019-09-24 19:00:00 26.8 13 Noroeste 24 Noroeste 0 914.1 -0.4 32
2019-09-24 18:00:00 28.6 9 Noroeste 24 Oeste 0 914 -1 27
2019-09-24 17:00:00 29.1 10 Noroeste 24 Oeste 0 914 -1.8 23
2019-09-24 16:00:00 29.5 9 Oeste 19 Oeste 0 914.5 -2.1 20
2019-09-24 15:00:00 28.3 4 Este 8 Este 0 915 -2.1 29
2019-09-24 14:00:00 26.4 5 Nordeste 13 Sur 0 915.8 -1.8 31
2019-09-24 13:00:00 24.9 4 Sudeste 10 Sudeste 0 916.6 -0.8 38
2019-09-24 12:00:00 21.6 4 Este 8 Este 0 917.1 -0.3 50
2019-09-24 11:00:00 16.8 4 Este 7 Nordeste 0 917.6 0.4 67
2019-09-24 10:00:00 13 2 Sudeste 5 Oeste 0 917.4 0.5 84
2019-09-24 09:00:00 9.3 0 Calma 4 Sur 0 917.4 0.5 93
2019-09-24 08:00:00 8.9 0 Calma 5 Oeste 0 917.2 0 93
2019-09-24 07:00:00 9.2 2 Oeste 4 Noroeste 0 916.9 -0.5 94
2019-09-24 06:00:00 9.8 0 Calma 7 Nordeste 0 916.9 -0.9 92
2019-09-24 05:00:00 10.7 2 Noroeste 6 Oeste 0 917.2 -0.9 91
2019-09-24 04:00:00 11.3 2 Nordeste 4 Oeste 0 917.4 -0.7 90
2019-09-24 03:00:00 11.7 3 Oeste 5 Norte 0 917.8 -0.5 90
2019-09-24 02:00:00 12.5 2 Oeste 4 Sudoeste 0 918.1 -0.1 88
2019-09-24 01:00:00 13.7 0 Calma 5 Oeste 0 918.1 0.2 85
2019-09-24 00:00:00 14.5 0 Calma 5 Norte 0 918.3 0.8 83
2019-09-23 23:00:00 15.8 0 Calma 5 Norte 0 918.2 1.3 76
2019-09-23 22:00:00 17.1 3 Norte 9 Oeste 0 917.9 1.2 72
2019-09-23 21:00:00 18.7 3 Noroeste 6 Oeste 0 917.5 1.2 61
2019-09-23 20:00:00 21.1 3 Este 14 Sur 0 916.9 0.3 49
2019-09-23 19:00:00 23 7 Sur 16 Sur 0 916.7 -0.3 43
2019-09-23 18:00:00 23.7 6 Sur 17 Sur 0 916.3 -1.1 41
2019-09-23 17:00:00 24.5 6 Sudeste 14 Sur 0 916.6 -1.2 39
2019-09-23 16:00:00 23.6 7 Sur 17 Sur 0 917 -1.2 38
2019-09-23 15:00:00 22.9 4 Sudeste 13 Sudeste 0 917.4 -1.4 38
2019-09-23 14:00:00 22.2 4 Sudoeste 13 Sur 0 917.8 -1.3 41
2019-09-23 13:00:00 20.7 4 Nordeste 13 Nordeste 0 918.2 -0.7 45
2019-09-23 12:00:00 18.2 3 Sudoeste 7 Oeste 0 918.8 0.3 56
2019-09-23 11:00:00 14.8 3 Noroeste 8 Norte 0 919.1 0.9 73
2019-09-23 10:00:00 12 3 Sur 8 Nordeste 0 918.9 1.3 86
2019-09-23 09:00:00 9.1 3 Oeste 5 Oeste 0 918.5 1.5 94
2019-09-23 08:00:00 8.3 0 Calma 4 Noroeste 0 918.2 1.6 93
2019-09-23 07:00:00 8.5 2 Noroeste 5 Norte 0 917.6 1 93
2019-09-23 06:00:00 9.3 3 Noroeste 4 Norte 0 917 0.6 94
2019-09-23 05:00:00 9.6 2 Oeste 3 Oeste 0 916.6 0.5 91
2019-09-23 04:00:00 10 2 Nordeste 4 Nordeste 0 916.6 0.7 93
2019-09-23 03:00:00 10.8 0 Calma 4 Nordeste 0 916.4 0.4 90
2019-09-23 02:00:00 11.7 0 Calma 8 Noroeste 0 916.1 0.8 87
2019-09-23 01:00:00 12.5 3 Nordeste 6 Nordeste 0 915.9 1.2 85
2019-09-23 00:00:00 13.9 3 Noroeste 9 Oeste 0 916 2.3 83
2019-09-22 23:00:00 15.2 5 Oeste 9 Noroeste 0 915.3 2.1 77
2019-09-22 22:00:00 15.2 6 Oeste 12 Noroeste 0 914.7 1.9 80
2019-09-22 21:00:00 16.4 3 Noroeste 9 Noroeste 0 913.7 1 90
2019-09-22 20:00:00 17.7 5 Norte 10 Sur 0 913.2 0.8 85
2019-09-22 19:00:00 18.2 3 Sudeste 15 Sur 0 912.8 1.2 85
2019-09-22 18:00:00 18.6 4 Sudeste 12 Noroeste 0.6 912.7 1 85
2019-09-22 17:00:00 18.3 6 Norte 32 Oeste 1 912.4 0.5 80
2019-09-22 16:00:00 24.4 13 Sudoeste 25 Oeste 0 911.6 -0.8 46
2019-09-22 15:00:00 24.6 15 Sudoeste 29 Oeste 0 911.7 -0.9 43
2019-09-22 14:00:00 23.7 13 Sudoeste 29 Sudoeste 0 911.9 -0.5 47
2019-09-22 13:00:00 22.7 8 Sudoeste 18 Sur 0 912.4 0 55
2019-09-22 12:00:00 22.7 6 Sudoeste 19 Sur 0 912.6 0.4 56
2019-09-22 11:00:00 21.1 9 Sudeste 22 Sur 0 912.4 0.7 61
2019-09-22 10:00:00 18.6 9 Sur 20 Sur 0 912.4 0.8 71
2019-09-22 09:00:00 16.7 9 Sur 20 Sur 0 912.2 0.9 77
2019-09-22 08:00:00 16.1 12 Sur 23 Sur 0 911.7 0.4 78
2019-09-22 07:00:00 16.2 8 Sur 19 Sudoeste 0 911.6 -0.1 78
2019-09-22 06:00:00 16.5 9 Sur 19 Sudoeste 0 911.3 -0.6 77
2019-09-22 05:00:00 17 14 Sudoeste 25 Sudoeste 0 911.3 -1 74
2019-09-22 04:00:00 16.4 5 Sur 12 Sur 0 911.7 -0.3 80
2019-09-22 03:00:00 16.8 7 Sur 16 Sudeste 0 911.9 -0.3 79
2019-09-22 02:00:00 17.2 6 Sur 15 Sur 0 912.3 0.3 81
2019-09-22 01:00:00 17.3 4 Sur 11 Sudoeste 0 912 0 80
2019-09-22 00:00:00 17.9 5 Sur 14 Sur 0 912.2 0.4 77
2019-09-21 23:00:00 18.8 4 Sur 12 Sur 0 912 0.5 71
2019-09-21 22:00:00 19.7 5 Sur 14 Sur 0 912 0.8 65
2019-09-21 21:00:00 20.1 9 Sudoeste 21 Sudoeste 0 911.8 1 62
2019-09-21 20:00:00 20.9 14 Sudoeste 25 Sudoeste 0 911.5 0.7 56
2019-09-21 19:00:00 21.6 9 Sudoeste 22 Sur 0 911.2 -0.1 56
2019-09-21 18:00:00 24.1 12 Sur 28 Sudoeste 0 910.8 -1 47
2019-09-21 17:00:00 24.2 8 Sur 21 Sudoeste 0 910.8 -1.4 48
2019-09-21 16:00:00 23.1 13 Sur 30 Sur 0 911.3 -1.7 51
2019-09-21 15:00:00 23 12 Sur 28 Sudeste 0 911.8 -1.4 55
2019-09-21 14:00:00 23.7 11 Sur 27 Sur 0 912.2 -1 51
2019-09-21 13:00:00 22 12 Sur 24 Sur 0 913 -0.1 60
2019-09-21 12:00:00 19.8 9 Sur 23 Sudeste 0 913.2 0.4 73
2019-09-21 11:00:00 17.7 5 Sur 11 Sur 0 913.2 0 80
2019-09-21 10:00:00 15 4 Este 8 Este 0 913.1 -0.7 93
2019-09-21 09:00:00 14.1 4 Oeste 9 Sudoeste 0.2 912.8 -0.8 95
2019-09-21 08:00:00 14 4 Sudoeste 12 Este 3 913.2 -1.2 94
2019-09-21 07:00:00 14.2 4 Sudeste 16 Sur 4 913.8 0 95
2019-09-21 06:00:00 14.5 3 Sur 13 Sur 2 913.6 -0.8 96
2019-09-21 05:00:00 14.5 7 Sur 13 Sudoeste 2 914.4 0 96
2019-09-21 04:00:00 14.4 4 Nordeste 11 Sur 5 913.8 -1.2 96
2019-09-21 03:00:00 14.4 3 Sudoeste 11 Sudoeste 0.2 914.4 0.3 94
2019-09-21 02:00:00 14.6 0 Calma 22 Sur 4.6 914.4 -0.2 92
2019-09-21 01:00:00 16.3 14 Sudoeste 32 Sudoeste 4.2 915 -0.1 85
2019-09-21 00:00:00 17.6 9 Sur 24 Sur 0.2 914.1 -0.4 84
2019-09-20 23:00:00 18.3 6 Sudeste 27 Sur 0 914.6 0.4 76
2019-09-20 22:00:00 18.6 11 Sur 31 Sur 0 915.1 0.7 75
2019-09-20 21:00:00 18.6 9 Sur 25 Sur 0 914.5 0.1 76
2019-09-20 20:00:00 19.5 8 Sudeste 29 Sur 0 914.2 -0.2 70
2019-09-20 19:00:00 20.5 10 Sudeste 31 Sur 0 914.4 -0.4 63
2019-09-20 18:00:00 21.7 10 Sudeste 32 Sudeste 0 914.4 -0.8 62
2019-09-20 17:00:00 22.7 10 Sudeste 31 Sudeste 0 914.4 -1.3 59
2019-09-20 16:00:00 23.6 11 Este 31 Este 0 914.8 -1.4 54
2019-09-20 15:00:00 23.3 10 Sudeste 28 Este 0 915.2 -1.5 53
2019-09-20 14:00:00 22.7 8 Sudeste 30 Sudeste 0 915.7 -1.6 55
2019-09-20 13:00:00 23 12 Sudeste 27 Este 0 916.2 -1.1 54
2019-09-20 12:00:00 21.6 7 Sudeste 26 Sudeste 0 916.7 -0.3 60
2019-09-20 11:00:00 19.2 5 Sur 17 Sudeste 0 917.3 0.8 72
2019-09-20 10:00:00 17.1 6 Sur 13 Sur 0 917.3 1.3 84
2019-09-20 09:00:00 14.5 2 Este 5 Nordeste 0 917 0.9 94
2019-09-20 08:00:00 13.1 2 Nordeste 6 Este 0 916.5 -0.1 96
2019-09-20 07:00:00 12.7 4 Sudoeste 6 Oeste 0 916 -0.9 93
2019-09-20 06:00:00 13.4 2 Oeste 4 Oeste 0 916.1 -0.7 93
2019-09-20 05:00:00 13.5 2 Sudoeste 3 Sudoeste 0 916.6 -0.2 92
2019-09-20 04:00:00 14 0 Calma 4 Sudoeste 0 916.9 0.1 92
2019-09-20 03:00:00 14.5 2 Noroeste 6 Oeste 0 916.8 -0.2 92
2019-09-20 02:00:00 15.1 4 Norte 8 Nordeste 0 916.8 -0.2 92
2019-09-20 01:00:00 16.2 3 Norte 6 Sudoeste 0 916.8 -0.2 89
2019-09-20 00:00:00 17.4 2 Sudoeste 11 Oeste 0 917 0.4 83
2019-09-19 23:00:00 18.3 0 Calma 12 Este 0 917 1.6 79
2019-09-19 22:00:00 18.3 9 Nordeste 19 Nordeste 0 917 2.1 78
2019-09-19 21:00:00 19.2 5 Sur 17 Sudoeste 0 916.6 1.6 68
2019-09-19 20:00:00 19.1 6 Sudeste 29 Este 0 915.4 0.4 71
2019-09-19 19:00:00 20.5 8 Este 29 Nordeste 0 914.9 0.3 61
2019-09-19 18:00:00 20 8 Este 30 Norte 0 915 0.3 61
2019-09-19 17:00:00 22.8 9 Norte 22 Nordeste 0 915 -0.6 53
2019-09-19 16:00:00 24.4 8 Nordeste 36 Noroeste 0 914.6 -1.7 45
2019-09-19 15:00:00 28.8 9 Sur 24 Sur 0 914.7 -2.1 31
2019-09-19 14:00:00 26.7 5 Sudeste 15 Sur 0 915.6 -1.5 41
2019-09-19 13:00:00 24.9 8 Sur 15 Sur 0 916.3 -0.7 46
2019-09-19 12:00:00 21.9 4 Nordeste 8 Este 0 916.8 0.1 54
2019-09-19 11:00:00 18.3 3 Sudoeste 7 Sur 0 917.1 0.7 70
2019-09-19 10:00:00 15 0 Calma 5 Oeste 0 917 0.8 86
2019-09-19 09:00:00 11.8 5 Oeste 6 Oeste 0 916.7 0.7 95
2019-09-19 08:00:00 10.9 0 Calma 4 Norte 0 916.4 0.3 93
2019-09-19 07:00:00 11.2 0 Calma 6 Oeste 0 916.2 -0.1 93
2019-09-19 06:00:00 11.5 2 Oeste 4 Oeste 0 916 -0.4 93
2019-09-19 05:00:00 12.2 3 Oeste 5 Oeste 0 916.1 -0.5 92
2019-09-19 04:00:00 12.8 4 Noroeste 6 Noroeste 0 916.3 -0.4 92
2019-09-19 03:00:00 13.4 2 Nordeste 7 Oeste 0 916.4 -0.2 91
2019-09-19 02:00:00 14.5 5 Oeste 7 Oeste 0 916.6 0 88
2019-09-19 01:00:00 14.8 2 Noroeste 9 Oeste 0 916.7 0.2 87
2019-09-19 00:00:00 15.7 4 Oeste 8 Oeste 0 916.6 0.8 84